createdAt,value
2019-03-10T00:00:52.679Z,8.13
2019-03-10T00:01:57.458Z,8.25
2019-03-10T00:03:02.273Z,8.05
2019-03-10T00:04:09.852Z,7.80
2019-03-10T00:05:14.031Z,8.03
2019-03-10T00:06:18.343Z,8.23
2019-03-10T00:07:24.388Z,7.72
2019-03-10T00:08:28.452Z,8.35
2019-03-10T00:09:35.820Z,8.00
2019-03-10T00:10:42.877Z,8.05
2019-03-10T00:11:49.021Z,8.05
2019-03-10T00:12:53.323Z,7.85
2019-03-10T00:13:59.755Z,8.18
2019-03-10T00:15:09.324Z,7.60
2019-03-10T00:16:14.564Z,7.70
2019-03-10T00:17:21.408Z,7.90
2019-03-10T00:18:26.746Z,7.97
2019-03-10T00:19:31.635Z,8.43
2019-03-10T00:20:36.926Z,8.63
2019-03-10T00:21:41.100Z,8.68
2019-03-10T00:22:45.408Z,7.60
2019-03-10T00:23:51.118Z,8.13
2019-03-10T00:24:56.981Z,8.00
2019-03-10T00:26:03.459Z,7.75
2019-03-10T00:27:08.268Z,7.80
2019-03-10T00:28:13.754Z,8.03
2019-03-10T00:30:53.428Z,6.58
2019-03-10T00:32:02.139Z,7.15
2019-03-10T00:33:06.872Z,7.28
2019-03-10T00:34:13.136Z,7.92
2019-03-10T00:35:20.348Z,6.90
2019-03-10T00:36:24.651Z,7.40
2019-03-10T00:37:28.878Z,6.85
2019-03-10T00:38:36.085Z,7.80
2019-03-10T00:39:59.516Z,7.17
2019-03-10T00:41:23.275Z,7.45
2019-03-10T00:43:04.125Z,7.17
2019-03-10T00:44:33.171Z,7.28
2019-03-10T00:45:43.733Z,6.50
2019-03-10T00:47:13.234Z,6.80
2019-03-10T00:48:48.944Z,7.17
2019-03-10T00:50:15.442Z,6.70
2019-03-10T00:51:49.783Z,6.67
2019-03-10T00:53:01.409Z,6.67
2019-03-10T00:54:05.324Z,6.50
2019-03-10T00:55:13.808Z,8.00
2019-03-10T00:56:19.744Z,7.72
2019-03-10T00:57:24.166Z,7.08
2019-03-10T00:58:30.107Z,6.95
2019-03-10T00:59:35.360Z,7.80
2019-03-10T01:00:41.914Z,7.00
2019-03-10T01:01:49.053Z,7.20
2019-03-10T01:02:54.923Z,7.10
2019-03-10T01:04:04.570Z,7.17
2019-03-10T01:05:37.525Z,7.15
2019-03-10T01:06:23.250Z,6.85
2019-03-10T01:07:28.228Z,7.25
2019-03-10T01:08:35.396Z,6.47
2019-03-10T01:09:41.444Z,7.03
2019-03-10T01:10:47.097Z,6.72
2019-03-10T01:11:52.899Z,6.78
2019-03-10T01:13:01.091Z,6.72
2019-03-10T01:14:08.022Z,6.67
2019-03-10T01:15:16.703Z,6.60
2019-03-10T01:16:24.314Z,6.40
2019-03-10T01:17:30.063Z,6.40
2019-03-10T01:18:38.160Z,6.25
2019-03-10T01:19:45.666Z,6.45
2019-03-10T01:20:53.704Z,5.22
2019-03-10T01:22:05.158Z,5.50
2019-03-10T01:23:20.624Z,4.90
2019-03-10T01:24:23.338Z,4.33
2019-03-10T01:25:30.751Z,3.50
2019-03-10T01:26:36.850Z,2.98
2019-03-10T01:27:42.025Z,3.20
2019-03-10T01:28:52.930Z,2.60
2019-03-10T01:29:57.264Z,2.75
2019-03-10T01:31:12.489Z,2.10
2019-03-10T01:32:40.237Z,2.20
2019-03-10T01:34:18.472Z,2.08
2019-03-10T01:35:29.995Z,2.30
2019-03-10T01:36:39.890Z,2.27
2019-03-10T01:37:54.184Z,2.25
2019-03-10T01:39:02.691Z,2.70
2019-03-10T01:40:16.045Z,2.37
2019-03-10T01:41:18.945Z,2.58
2019-03-10T01:42:27.151Z,2.62
2019-03-10T01:43:34.957Z,2.47
2019-03-10T01:44:40.695Z,2.60
2019-03-10T01:45:51.620Z,2.83
2019-03-10T01:46:54.864Z,2.60
2019-03-10T01:47:59.953Z,2.65
2019-03-10T01:49:05.819Z,2.60
2019-03-10T01:50:15.587Z,2.87
2019-03-10T01:51:22.780Z,2.80
2019-03-10T01:53:44.157Z,2.83
2019-03-10T01:54:58.642Z,3.08
2019-03-10T01:56:01.551Z,3.22
2019-03-10T01:57:18.406Z,3.27
2019-03-10T01:58:25.739Z,3.10
2019-03-10T01:59:33.050Z,3.20
2019-03-10T02:00:44.962Z,3.22
2019-03-10T02:01:50.038Z,3.15
2019-03-10T02:03:05.837Z,3.40
2019-03-10T02:04:09.210Z,3.60
2019-03-10T02:06:21.300Z,3.30
2019-03-10T02:06:33.613Z,3.37
2019-03-10T02:07:43.694Z,3.70
2019-03-10T02:08:56.392Z,3.45
2019-03-10T02:10:23.459Z,3.58
2019-03-10T02:11:50.807Z,3.22
2019-03-10T02:13:04.643Z,3.30
2019-03-10T02:14:02.103Z,3.42
2019-03-10T02:15:21.437Z,3.60
2019-03-10T02:16:18.899Z,3.67
2019-03-10T02:17:30.252Z,3.80
2019-03-10T02:18:38.499Z,3.62
2019-03-10T02:20:53.038Z,3.77
2019-03-10T02:22:04.578Z,3.60
2019-03-10T02:23:23.967Z,4.03
2019-03-10T02:24:30.297Z,4.05
2019-03-10T02:25:39.983Z,3.90
2019-03-10T02:26:45.897Z,4.05
2019-03-10T02:29:14.426Z,4.20
2019-03-10T02:29:51.861Z,3.83
2019-03-10T02:30:21.120Z,4.20
2019-03-10T02:31:25.581Z,4.20
2019-03-10T02:32:33.995Z,4.22
2019-03-10T02:33:45.104Z,5.00
2019-03-10T02:34:45.829Z,4.75
2019-03-10T02:35:59.025Z,4.20
2019-03-10T02:37:05.831Z,4.60
2019-03-10T02:38:29.564Z,4.78
2019-03-10T02:39:36.967Z,4.40
2019-03-10T02:40:43.572Z,3.90
2019-03-10T02:42:19.164Z,3.42
2019-03-10T02:43:09.993Z,3.50
2019-03-10T02:44:24.544Z,3.10
2019-03-10T02:46:40.574Z,3.85
2019-03-10T02:47:21.074Z,2.80
2019-03-10T02:47:55.358Z,3.22
2019-03-10T02:49:14.908Z,3.22
2019-03-10T02:50:12.752Z,3.00
2019-03-10T02:51:18.632Z,3.10
2019-03-10T02:52:22.906Z,3.08
2019-03-10T02:53:32.269Z,3.08
2019-03-10T02:54:34.759Z,2.87
2019-03-10T02:55:56.269Z,2.25
2019-03-10T02:58:44.577Z,2.27
2019-03-10T02:59:46.214Z,2.20
2019-03-10T03:01:57.587Z,2.83
2019-03-10T03:03:03.925Z,2.10
2019-03-10T03:04:09.441Z,2.37
2019-03-10T03:05:16.516Z,2.30
2019-03-10T03:06:28.200Z,2.50
2019-03-10T03:07:33.669Z,2.45
2019-03-10T03:08:43.963Z,2.70
2019-03-10T03:09:50.075Z,2.80
2019-03-10T03:10:58.241Z,2.27
2019-03-10T03:12:02.604Z,2.98
2019-03-10T03:13:15.911Z,2.30
2019-03-10T03:14:22.672Z,2.65
2019-03-10T03:15:29.545Z,3.05
2019-03-10T03:16:37.897Z,2.77
2019-03-10T03:17:46.984Z,2.80
2019-03-10T03:18:54.259Z,2.40
2019-03-10T03:20:01.110Z,2.12
2019-03-10T03:21:05.553Z,2.10
2019-03-10T03:22:14.336Z,2.25
2019-03-10T03:23:20.280Z,2.15
2019-03-10T03:24:27.434Z,2.10
2019-03-10T03:25:34.122Z,1.77
2019-03-10T03:26:37.814Z,1.77
2019-03-10T03:27:44.282Z,2.02
2019-03-10T03:28:51.479Z,1.95
2019-03-10T03:29:58.398Z,1.80
2019-03-10T03:31:02.575Z,2.00
2019-03-10T03:32:11.481Z,2.10
2019-03-10T03:33:18.331Z,2.70
2019-03-10T03:34:26.721Z,2.50
2019-03-10T03:35:52.825Z,3.27
2019-03-10T03:36:59.566Z,3.15
2019-03-10T03:38:11.024Z,2.98
2019-03-10T03:39:23.380Z,2.72
2019-03-10T03:40:29.549Z,3.35
2019-03-10T03:41:38.558Z,3.20
2019-03-10T03:42:43.601Z,3.10
2019-03-10T03:43:53.337Z,3.52
2019-03-10T03:44:57.883Z,2.75
2019-03-10T03:46:06.550Z,2.62
2019-03-10T03:47:14.192Z,2.60
2019-03-10T03:48:30.188Z,2.40
2019-03-10T03:49:29.730Z,3.10
2019-03-10T03:50:38.346Z,2.65
2019-03-10T03:52:05.557Z,2.05
2019-03-10T03:52:52.557Z,2.02
2019-03-10T03:54:04.859Z,2.50
2019-03-10T03:55:12.553Z,2.35
2019-03-10T03:56:23.741Z,2.75
2019-03-10T03:57:33.672Z,2.30
2019-03-10T03:58:41.843Z,2.27
2019-03-10T03:59:49.425Z,2.40
2019-03-10T04:00:57.409Z,2.25
2019-03-10T04:02:06.657Z,2.52
2019-03-10T04:03:13.243Z,2.30
2019-03-10T04:04:21.975Z,1.90
2019-03-10T04:05:36.832Z,2.00
2019-03-10T04:06:44.139Z,2.10
2019-03-10T04:08:18.498Z,2.20
2019-03-10T04:09:07.042Z,2.92
2019-03-10T04:10:37.496Z,2.20
2019-03-10T04:11:45.931Z,2.00
2019-03-10T04:12:47.820Z,2.33
2019-03-10T04:15:24.311Z,2.27
2019-03-10T04:16:32.824Z,2.15
2019-03-10T04:17:44.918Z,2.60
2019-03-10T04:20:10.274Z,1.98
2019-03-10T04:21:14.660Z,2.47
2019-03-10T04:22:18.853Z,2.50
2019-03-10T04:23:24.927Z,2.52
2019-03-10T04:24:38.643Z,2.90
2019-03-10T04:25:45.754Z,2.65
2019-03-10T04:26:48.818Z,2.47
2019-03-10T04:27:58.544Z,2.95
2019-03-10T04:29:04.982Z,3.00
2019-03-10T04:30:12.707Z,2.72
2019-03-10T04:31:20.656Z,2.87
2019-03-10T04:32:28.019Z,3.40
2019-03-10T04:33:37.270Z,3.12
2019-03-10T04:34:45.199Z,3.47
2019-03-10T04:35:55.537Z,3.52
2019-03-10T04:37:07.894Z,3.47
2019-03-10T04:40:32.452Z,3.25
2019-03-10T04:41:11.542Z,3.70
2019-03-10T04:42:14.080Z,4.80
2019-03-10T04:43:41.465Z,3.80
2019-03-10T04:44:46.840Z,3.83
2019-03-10T04:45:59.852Z,4.10
2019-03-10T04:48:41.863Z,3.40
2019-03-10T04:49:51.724Z,3.77
2019-03-10T04:51:12.194Z,4.37
2019-03-10T04:52:21.429Z,4.28
2019-03-10T04:53:28.433Z,3.77
2019-03-10T04:54:48.393Z,4.03
2019-03-10T04:56:13.128Z,4.05
2019-03-10T04:57:15.779Z,4.20
2019-03-10T04:58:26.095Z,3.85
2019-03-10T04:59:37.649Z,4.00
2019-03-10T05:01:07.653Z,3.90
2019-03-10T05:03:58.652Z,3.45
2019-03-10T05:05:19.049Z,3.87
2019-03-10T05:06:24.918Z,3.60
2019-03-10T05:08:44.157Z,3.72
2019-03-10T05:09:59.637Z,3.62
2019-03-10T05:11:03.418Z,3.15
2019-03-10T05:12:16.233Z,3.37
2019-03-10T05:15:03.247Z,3.02
2019-03-10T05:16:13.335Z,2.90
2019-03-10T05:17:20.926Z,2.47
2019-03-10T05:18:40.651Z,2.90
2019-03-10T05:20:01.050Z,3.60
2019-03-10T05:22:51.154Z,3.20
2019-03-10T05:24:27.386Z,2.50
2019-03-10T05:25:41.139Z,2.67
2019-03-10T05:26:48.202Z,2.72
2019-03-10T05:29:43.988Z,2.98
2019-03-10T05:30:55.007Z,2.60
2019-03-10T05:32:00.753Z,2.92
2019-03-10T05:33:12.185Z,2.77
2019-03-10T05:34:20.715Z,2.72
2019-03-10T05:35:38.332Z,2.25
2019-03-10T05:36:44.238Z,2.10
2019-03-10T05:37:56.425Z,2.62
2019-03-10T05:39:24.521Z,2.25
2019-03-10T05:40:25.673Z,2.37
2019-03-10T05:43:13.820Z,2.33
2019-03-10T05:43:24.864Z,1.72
2019-03-10T05:44:44.633Z,2.00
2019-03-10T05:45:57.852Z,2.60
2019-03-10T05:47:09.570Z,2.12
2019-03-10T05:49:25.596Z,2.25
2019-03-10T05:49:53.799Z,1.72
2019-03-10T05:51:11.233Z,2.37
2019-03-10T05:52:51.033Z,2.08
2019-03-10T05:54:07.219Z,2.20
2019-03-10T05:54:50.102Z,2.22
2019-03-10T05:56:03.276Z,2.17
2019-03-10T05:57:24.855Z,2.20
2019-03-10T05:58:29.252Z,2.08
2019-03-10T05:59:36.090Z,2.02
2019-03-10T06:01:53.046Z,2.45
2019-03-10T06:06:21.964Z,2.42
2019-03-10T06:24:54.242Z,2.33
2019-03-10T06:27:34.170Z,3.12
2019-03-10T06:29:36.375Z,2.77
2019-03-10T06:30:56.256Z,2.87
2019-03-10T06:34:27.692Z,3.12
2019-03-10T06:38:02.799Z,2.60
2019-03-10T06:44:54.242Z,2.55
2019-03-10T06:47:44.852Z,2.90
2019-03-10T06:50:20.110Z,2.75
2019-03-10T06:51:29.104Z,2.92
2019-03-10T06:52:38.281Z,2.77
2019-03-10T06:53:55.875Z,2.65
2019-03-10T06:54:58.245Z,2.67
2019-03-10T06:56:20.746Z,2.85
2019-03-10T06:57:28.753Z,2.92
2019-03-10T06:59:46.096Z,3.22
2019-03-10T07:01:12.072Z,3.40
2019-03-10T07:02:20.889Z,3.10
2019-03-10T07:03:33.012Z,2.87
2019-03-10T07:04:50.431Z,2.80
2019-03-10T07:06:01.770Z,2.80
2019-03-10T07:07:37.436Z,2.90
2019-03-10T07:08:20.966Z,3.30
2019-03-10T07:09:45.921Z,3.08
2019-03-10T07:12:25.168Z,2.85
2019-03-10T07:15:31.872Z,3.05
2019-03-10T07:16:59.840Z,2.98
2019-03-10T07:19:10.722Z,3.10
2019-03-10T07:23:28.230Z,3.37
2019-03-10T07:25:37.856Z,2.98
2019-03-10T07:34:49.179Z,2.55
2019-03-10T07:35:46.934Z,3.10
2019-03-10T07:37:25.260Z,2.80
2019-03-10T07:39:30.618Z,3.20
2019-03-10T07:40:10.944Z,3.10
2019-03-10T07:41:33.081Z,3.17
2019-03-10T07:43:07.770Z,3.00
2019-03-10T07:47:54.173Z,3.25
2019-03-10T07:50:01.036Z,3.35
2019-03-10T07:53:46.585Z,3.15
2019-03-10T08:13:42.792Z,2.65
2019-03-10T08:16:04.644Z,3.20
2019-03-10T08:23:02.654Z,3.30
2019-03-10T08:24:25.606Z,2.95
2019-03-10T08:26:07.350Z,2.58
2019-03-10T08:27:27.443Z,2.92
2019-03-10T08:28:50.936Z,3.02
2019-03-10T08:30:00.181Z,4.00
2019-03-10T08:31:29.978Z,3.15
2019-03-10T08:32:44.033Z,3.10
2019-03-10T08:34:08.562Z,3.20
2019-03-10T08:35:50.180Z,3.08
2019-03-10T08:37:05.646Z,3.30
2019-03-10T08:39:52.939Z,3.30
2019-03-10T08:44:33.216Z,3.30
2019-03-10T08:45:49.576Z,3.20
2019-03-10T08:47:04.516Z,3.05
2019-03-10T08:48:28.002Z,3.27
2019-03-10T08:49:44.966Z,2.87
2019-03-10T08:50:57.595Z,2.92
2019-03-10T08:54:07.098Z,3.42
2019-03-10T08:55:16.566Z,3.20
2019-03-10T08:56:24.446Z,3.37
2019-03-10T08:57:46.693Z,3.55
2019-03-10T08:59:12.638Z,3.47
2019-03-10T09:00:37.262Z,3.40
2019-03-10T09:02:02.591Z,3.30
2019-03-10T09:03:19.478Z,3.00
2019-03-10T09:04:38.143Z,2.87
2019-03-10T09:06:06.702Z,3.20
2019-03-10T09:07:23.835Z,3.40
2019-03-10T09:08:36.020Z,3.22
2019-03-10T09:10:00.682Z,3.98
2019-03-10T09:11:30.797Z,2.98
2019-03-10T09:12:31.416Z,3.62
2019-03-10T09:13:48.290Z,3.55
2019-03-10T09:15:00.966Z,3.40
2019-03-10T09:16:06.894Z,3.42
2019-03-10T09:17:17.540Z,3.30
2019-03-10T09:18:44.999Z,3.33
2019-03-10T09:19:58.366Z,3.10
2019-03-10T09:21:10.592Z,3.02
2019-03-10T09:22:41.032Z,3.50
2019-03-10T09:25:05.190Z,3.85
2019-03-10T09:26:20.677Z,3.72
2019-03-10T09:27:42.990Z,3.90
2019-03-10T09:28:51.928Z,3.05
2019-03-10T09:30:01.607Z,3.10
2019-03-10T09:31:18.562Z,3.08
2019-03-10T09:32:40.010Z,3.25
2019-03-10T09:33:54.738Z,3.42
2019-03-10T09:35:03.335Z,3.50
2019-03-10T09:36:31.826Z,4.25
2019-03-10T09:37:56.927Z,3.58
2019-03-10T09:39:06.750Z,3.87
2019-03-10T09:40:14.457Z,3.45
2019-03-10T09:41:38.685Z,3.47
2019-03-10T09:42:51.618Z,3.12
2019-03-10T09:44:04.448Z,3.80
2019-03-10T09:45:22.627Z,3.90
2019-03-10T09:46:29.892Z,3.12
2019-03-10T09:47:53.194Z,2.75
2019-03-10T09:49:19.999Z,3.15
2019-03-10T09:50:34.549Z,2.80
2019-03-10T09:51:52.526Z,2.95
2019-03-10T09:53:10.596Z,2.67
2019-03-10T09:54:32.273Z,2.90
2019-03-10T09:55:57.920Z,2.80
2019-03-10T09:57:14.211Z,2.40
2019-03-10T09:58:40.417Z,2.70
2019-03-10T09:59:50.133Z,2.37
2019-03-10T10:00:55.983Z,2.85
2019-03-10T10:02:04.791Z,2.70
2019-03-10T10:03:13.274Z,2.60
2019-03-10T10:04:27.938Z,2.65
2019-03-10T10:05:36.505Z,2.90
2019-03-10T10:06:51.664Z,2.77
2019-03-10T10:07:59.598Z,3.77
2019-03-10T10:09:21.201Z,3.35
2019-03-10T10:10:34.415Z,2.70
2019-03-10T10:11:43.903Z,2.72
2019-03-10T10:13:06.005Z,3.20
2019-03-10T10:14:18.467Z,3.25
2019-03-10T10:15:26.395Z,2.95
2019-03-10T10:16:32.169Z,3.00
2019-03-10T10:17:56.520Z,3.22
2019-03-10T10:19:05.947Z,2.92
2019-03-10T10:20:28.910Z,3.23
2019-03-10T10:21:53.860Z,2.65
2019-03-10T10:23:00.501Z,3.17
2019-03-10T10:24:16.969Z,3.20
2019-03-10T10:25:31.111Z,2.85
2019-03-10T10:26:56.693Z,2.87
2019-03-10T10:27:56.758Z,3.40
2019-03-10T10:29:12.781Z,2.58
2019-03-10T10:30:46.336Z,2.95
2019-03-10T10:32:05.856Z,2.80
2019-03-10T10:33:40.861Z,3.17
2019-03-10T10:36:54.679Z,3.33
2019-03-10T10:41:08.478Z,3.30
2019-03-10T10:42:46.895Z,2.80
2019-03-10T10:44:15.327Z,3.08
2019-03-10T10:45:28.736Z,3.12
2019-03-10T10:46:38.049Z,2.95
2019-03-10T10:47:48.184Z,3.30
2019-03-10T10:48:55.336Z,3.40
2019-03-10T10:50:03.673Z,3.00
2019-03-10T10:51:31.752Z,4.40
2019-03-10T10:52:43.210Z,3.60
2019-03-10T10:54:06.367Z,3.17
2019-03-10T10:55:17.244Z,3.08
2019-03-10T10:56:33.148Z,2.90
2019-03-10T10:57:59.097Z,3.10
2019-03-10T10:59:12.972Z,3.50
2019-03-10T11:00:21.785Z,3.17
2019-03-10T11:01:37.773Z,3.05
2019-03-10T11:02:45.104Z,2.90
2019-03-10T11:04:07.105Z,3.00
2019-03-10T11:05:16.946Z,3.15
2019-03-10T11:06:24.546Z,2.85
2019-03-10T11:07:38.641Z,3.45
2019-03-10T11:08:57.389Z,3.10
2019-03-10T11:10:18.401Z,3.47
2019-03-10T11:11:30.009Z,3.40
2019-03-10T11:12:35.755Z,3.02
2019-03-10T11:13:51.523Z,2.83
2019-03-10T11:14:57.027Z,3.00
2019-03-10T11:16:20.221Z,3.40
2019-03-10T11:17:26.009Z,3.30
2019-03-10T11:18:47.423Z,3.12
2019-03-10T11:19:56.130Z,2.70
2019-03-10T11:21:15.650Z,2.83
2019-03-10T11:22:26.950Z,2.98
2019-03-10T11:23:34.352Z,2.87
2019-03-10T11:24:46.610Z,2.52
2019-03-10T11:26:08.518Z,2.85
2019-03-10T11:27:29.688Z,2.92
2019-03-10T11:28:51.867Z,2.83
2019-03-10T11:30:13.093Z,3.17
2019-03-10T11:31:20.753Z,2.90
2019-03-10T11:32:32.100Z,3.02
2019-03-10T11:33:45.778Z,3.00
2019-03-10T11:34:51.657Z,2.67
2019-03-10T11:36:13.857Z,2.70
2019-03-10T11:37:26.945Z,3.33
2019-03-10T11:38:37.061Z,2.80
2019-03-10T11:39:46.365Z,2.98
2019-03-10T11:41:05.194Z,3.30
2019-03-10T11:42:31.128Z,3.25
2019-03-10T11:43:43.270Z,3.02
2019-03-10T11:45:05.680Z,3.40
2019-03-10T11:46:13.691Z,3.20
2019-03-10T11:47:26.002Z,3.20
2019-03-10T11:48:36.638Z,3.42
2019-03-10T11:49:52.067Z,3.30
2019-03-10T11:52:59.421Z,3.37
2019-03-10T11:54:15.828Z,3.55
2019-03-10T11:55:27.992Z,3.12
2019-03-10T11:56:38.716Z,3.52
2019-03-10T11:58:00.811Z,3.55
2019-03-10T11:59:13.381Z,3.50
2019-03-10T12:00:48.731Z,3.67
2019-03-10T12:02:16.185Z,3.47
2019-03-10T12:03:44.452Z,3.60
2019-03-10T12:05:30.571Z,3.50
2019-03-10T12:06:38.977Z,3.65
2019-03-10T12:07:45.293Z,3.50
2019-03-10T12:08:54.254Z,3.70
2019-03-10T12:09:59.394Z,3.20
2019-03-10T12:11:13.009Z,3.58
2019-03-10T12:12:19.819Z,3.70
2019-03-10T12:13:28.078Z,3.80
2019-03-10T12:14:34.531Z,3.10
2019-03-10T12:15:42.985Z,4.10
2019-03-10T12:16:52.425Z,3.42
2019-03-10T12:18:00.889Z,3.70
2019-03-10T12:19:09.827Z,3.40
2019-03-10T12:21:47.242Z,3.47
2019-03-10T12:22:53.031Z,3.85
2019-03-10T12:24:02.547Z,3.50
2019-03-10T12:25:23.925Z,3.47
2019-03-10T12:26:25.938Z,3.60
2019-03-10T12:27:32.245Z,3.85
2019-03-10T12:28:37.062Z,3.80
2019-03-10T12:29:41.188Z,4.00
2019-03-10T12:30:51.493Z,3.80
2019-03-10T12:33:01.020Z,3.85
2019-03-10T12:34:13.014Z,3.40
2019-03-10T12:35:17.936Z,4.45
2019-03-10T12:38:01.014Z,3.85
2019-03-10T12:39:08.710Z,4.10
2019-03-10T12:40:29.897Z,4.00
2019-03-10T12:41:36.584Z,4.15
2019-03-10T12:42:50.304Z,4.10
2019-03-10T12:44:02.155Z,3.70
2019-03-10T12:45:11.192Z,4.15
2019-03-10T12:46:16.235Z,4.90
2019-03-10T12:47:22.422Z,3.95
2019-03-10T12:48:32.352Z,4.03
2019-03-10T12:49:38.388Z,3.92
2019-03-10T12:50:55.801Z,4.33
2019-03-10T12:51:53.248Z,4.22
2019-03-10T12:52:57.486Z,3.60
2019-03-10T12:54:01.569Z,4.03
2019-03-10T12:55:08.723Z,3.85
2019-03-10T12:56:34.230Z,4.00
2019-03-10T12:57:33.256Z,3.65
2019-03-10T12:58:39.258Z,3.72
2019-03-10T12:59:46.743Z,3.50
2019-03-10T13:00:52.545Z,4.53
2019-03-10T13:01:56.715Z,3.62
2019-03-10T13:03:00.930Z,3.80
2019-03-10T13:04:06.636Z,3.98
2019-03-10T13:05:30.202Z,4.28
2019-03-10T13:06:29.591Z,3.85
2019-03-10T13:07:50.637Z,4.05
2019-03-10T13:08:52.288Z,3.87
2019-03-10T13:09:59.542Z,3.80
2019-03-10T13:11:03.696Z,3.75
2019-03-10T13:12:09.329Z,3.70
2019-03-10T13:13:14.015Z,4.25
2019-03-10T13:14:18.273Z,4.10
2019-03-10T13:15:22.529Z,3.80
2019-03-10T13:16:26.689Z,3.77
2019-03-10T13:17:33.852Z,3.52
2019-03-10T13:18:38.077Z,4.00
2019-03-10T13:19:42.931Z,3.90
2019-03-10T13:20:47.121Z,3.87
2019-03-10T13:21:54.011Z,4.17
2019-03-10T13:22:58.139Z,3.70
2019-03-10T13:24:06.043Z,3.52
2019-03-10T13:25:13.354Z,3.72
2019-03-10T13:26:17.566Z,3.20
2019-03-10T13:27:22.885Z,3.20
2019-03-10T13:28:28.373Z,4.00
2019-03-10T13:29:32.506Z,3.50
2019-03-10T13:30:38.235Z,3.83
2019-03-10T13:31:45.039Z,3.77
2019-03-10T13:32:51.048Z,3.75
2019-03-10T13:33:58.161Z,3.80
2019-03-10T13:35:02.992Z,4.08
2019-03-10T13:36:09.770Z,4.05
2019-03-10T13:37:16.778Z,4.08
2019-03-10T13:38:23.632Z,4.20
2019-03-10T13:39:34.231Z,3.85
2019-03-10T13:40:38.376Z,4.20
2019-03-10T13:41:44.637Z,3.60
2019-03-10T13:42:55.337Z,3.92
2019-03-10T13:43:56.872Z,4.50
2019-03-10T13:45:04.965Z,3.52
2019-03-10T13:46:14.519Z,3.77
2019-03-10T13:47:19.602Z,3.72
2019-03-10T13:48:24.440Z,3.58
2019-03-10T13:49:31.379Z,3.80
2019-03-10T13:50:37.489Z,4.00
2019-03-10T13:51:44.885Z,3.87
2019-03-10T13:52:51.003Z,4.30
2019-03-10T13:53:56.700Z,4.05
2019-03-10T13:55:02.218Z,3.70
2019-03-10T13:56:10.786Z,3.70
2019-03-10T13:57:17.902Z,4.12
2019-03-10T13:58:22.877Z,3.72
2019-03-10T13:59:27.717Z,5.00
2019-03-10T14:00:37.410Z,4.00
2019-03-10T14:01:43.308Z,4.58
2019-03-10T14:02:47.594Z,3.92
2019-03-10T14:03:55.310Z,3.77
2019-03-10T14:05:03.735Z,4.45
2019-03-10T14:06:09.648Z,4.47
2019-03-10T14:07:15.735Z,4.05
2019-03-10T14:08:22.136Z,4.20
2019-03-10T14:09:27.857Z,4.15
2019-03-10T14:10:33.675Z,4.17
2019-03-10T14:11:40.109Z,4.50
2019-03-10T14:12:46.143Z,3.90
2019-03-10T14:13:51.831Z,4.62
2019-03-10T14:15:00.047Z,4.60
2019-03-10T14:16:05.742Z,4.70
2019-03-10T14:17:34.561Z,3.90
2019-03-10T14:18:19.856Z,4.03
2019-03-10T14:19:28.727Z,4.00
2019-03-10T14:20:37.722Z,4.37
2019-03-10T14:21:38.823Z,3.62
2019-03-10T14:22:43.644Z,3.70
2019-03-10T14:23:54.248Z,4.10
2019-03-10T14:24:58.986Z,3.80
2019-03-10T14:26:04.831Z,4.20
2019-03-10T14:27:09.159Z,3.67
2019-03-10T14:28:17.445Z,4.45
2019-03-10T14:29:22.400Z,3.75
2019-03-10T14:30:30.605Z,3.90
2019-03-10T14:31:39.045Z,3.95
2019-03-10T14:32:44.528Z,4.22
2019-03-10T14:33:51.459Z,4.00
2019-03-10T14:34:56.783Z,3.90
2019-03-10T14:36:02.980Z,3.75
2019-03-10T14:37:14.083Z,3.27
2019-03-10T14:38:18.415Z,3.52
2019-03-10T14:39:24.710Z,4.17
2019-03-10T14:40:30.695Z,3.83
2019-03-10T14:41:36.419Z,4.50
2019-03-10T14:42:46.320Z,6.22
2019-03-10T14:43:50.508Z,5.80
2019-03-10T14:44:57.082Z,5.83
2019-03-10T14:46:02.751Z,4.40
2019-03-10T14:47:07.010Z,4.45
2019-03-10T14:48:11.521Z,4.28
2019-03-10T14:49:23.021Z,4.08
2019-03-10T14:50:22.570Z,4.40
2019-03-10T14:51:29.594Z,4.08
2019-03-10T14:52:33.847Z,4.37
2019-03-10T14:53:42.517Z,3.75
2019-03-10T14:54:46.335Z,4.12
2019-03-10T14:55:52.131Z,4.65
2019-03-10T14:56:56.409Z,3.77
2019-03-10T14:58:00.629Z,4.40
2019-03-10T14:59:05.692Z,4.33
2019-03-10T15:00:15.787Z,3.95
2019-03-10T15:01:22.432Z,3.98
2019-03-10T15:02:28.419Z,4.12
2019-03-10T15:03:32.535Z,4.30
2019-03-10T15:04:40.854Z,4.40
2019-03-10T15:05:46.607Z,4.83
2019-03-10T15:06:50.847Z,4.00
2019-03-10T15:07:57.012Z,4.60
2019-03-10T15:09:03.515Z,4.12
2019-03-10T15:10:10.596Z,4.15
2019-03-10T15:11:16.004Z,4.22
2019-03-10T15:12:24.823Z,4.50
2019-03-10T15:13:29.452Z,4.92
2019-03-10T15:14:35.017Z,5.03
2019-03-10T15:15:49.229Z,4.95
2019-03-10T15:17:01.389Z,4.97
2019-03-10T15:18:03.026Z,5.22
2019-03-10T15:19:09.719Z,5.47
2019-03-10T15:20:30.133Z,4.83
2019-03-10T15:21:35.661Z,4.72
2019-03-10T15:22:43.398Z,4.97
2019-03-10T15:23:48.178Z,4.85
2019-03-10T15:24:56.493Z,3.80
2019-03-10T15:26:01.793Z,4.40
2019-03-10T15:27:08.683Z,4.22
2019-03-10T15:28:19.204Z,4.00
2019-03-10T15:29:27.110Z,4.10
2019-03-10T15:30:31.378Z,3.55
2019-03-10T15:31:44.614Z,3.70
2019-03-10T15:32:50.456Z,3.85
2019-03-10T15:33:56.200Z,4.15
2019-03-10T15:35:03.618Z,3.50
2019-03-10T15:36:19.939Z,4.03
2019-03-10T15:37:23.707Z,4.20
2019-03-10T15:38:30.228Z,4.10
2019-03-10T15:39:37.485Z,3.65
2019-03-10T15:40:51.012Z,4.08
2019-03-10T15:41:58.713Z,4.33
2019-03-10T15:43:03.865Z,4.03
2019-03-10T15:44:08.574Z,4.50
2019-03-10T15:45:16.433Z,4.12
2019-03-10T15:46:28.534Z,4.08
2019-03-10T15:47:32.641Z,4.47
2019-03-10T15:48:36.884Z,4.40
2019-03-10T15:49:42.398Z,4.35
2019-03-10T15:50:52.282Z,4.12
2019-03-10T15:51:56.374Z,4.58
2019-03-10T15:53:02.073Z,4.05
2019-03-10T15:54:09.666Z,4.25
2019-03-10T15:55:13.596Z,4.05
2019-03-10T15:56:19.341Z,4.42
2019-03-10T15:57:24.988Z,4.20
2019-03-10T15:58:30.440Z,4.97
2019-03-10T15:59:34.633Z,4.67
2019-03-10T16:00:39.976Z,5.30
2019-03-10T16:01:50.438Z,4.60
2019-03-10T16:02:57.707Z,5.25
2019-03-10T16:04:16.824Z,4.58
2019-03-10T16:05:41.077Z,4.78
2019-03-10T16:06:47.497Z,4.83
2019-03-10T16:07:59.673Z,5.25
2019-03-10T16:09:08.126Z,5.40
2019-03-10T16:10:15.206Z,6.75
2019-03-10T16:11:28.790Z,6.22
2019-03-10T16:13:59.348Z,5.60
2019-03-10T16:15:06.496Z,5.67
2019-03-10T16:16:11.256Z,5.67
2019-03-10T16:17:16.107Z,5.72
2019-03-10T16:18:43.699Z,6.30
2019-03-10T16:19:48.167Z,5.08
2019-03-10T16:20:53.110Z,5.53
2019-03-10T16:22:04.103Z,5.53
2019-03-10T16:23:12.599Z,5.70
2019-03-10T16:24:22.071Z,4.85
2019-03-10T16:25:40.391Z,5.80
2019-03-10T16:26:50.558Z,5.28
2019-03-10T16:28:18.455Z,5.22
2019-03-10T16:29:25.063Z,5.10
2019-03-10T16:30:31.382Z,5.72
2019-03-10T16:31:37.627Z,5.50
2019-03-10T16:32:47.363Z,5.70
2019-03-10T16:34:02.022Z,6.30
2019-03-10T16:35:08.741Z,5.83
2019-03-10T16:36:45.150Z,5.90
2019-03-10T16:37:52.318Z,5.47
2019-03-10T16:39:31.034Z,5.05
2019-03-10T16:42:02.287Z,4.90
2019-03-10T16:43:08.701Z,5.05
2019-03-10T16:44:17.240Z,5.25
2019-03-10T16:45:26.532Z,5.00
2019-03-10T16:46:35.287Z,5.17
2019-03-10T16:47:48.134Z,5.50
2019-03-10T16:48:53.349Z,5.33
2019-03-10T16:49:59.869Z,4.80
2019-03-10T16:51:07.156Z,5.10
2019-03-10T16:52:12.181Z,5.12
2019-03-10T16:53:18.487Z,4.83
2019-03-10T16:54:30.435Z,4.80
2019-03-10T16:55:36.275Z,4.53
2019-03-10T16:56:58.623Z,4.85
2019-03-10T16:58:04.595Z,4.53
2019-03-10T16:59:13.164Z,5.15
2019-03-10T17:00:30.638Z,5.30
2019-03-10T17:01:50.919Z,4.90
2019-03-10T17:02:56.767Z,4.67
2019-03-10T17:04:00.935Z,5.00
2019-03-10T17:05:16.394Z,5.08
2019-03-10T17:06:22.542Z,4.87
2019-03-10T17:07:30.450Z,5.30
2019-03-10T17:08:36.927Z,4.60
2019-03-10T17:09:42.789Z,5.35
2019-03-10T17:10:47.692Z,5.55
2019-03-10T17:11:52.933Z,5.92
2019-03-10T17:12:59.175Z,8.93
2019-03-10T17:14:06.907Z,6.20
2019-03-10T17:15:19.658Z,5.92
2019-03-10T17:16:27.516Z,6.95
2019-03-10T17:17:43.457Z,6.08
2019-03-10T17:18:44.876Z,6.33
2019-03-10T17:24:03.100Z,7.78
2019-03-10T17:25:14.214Z,8.60
2019-03-10T17:26:19.099Z,7.45
2019-03-10T17:27:25.072Z,7.65
2019-03-10T17:28:37.562Z,7.78
2019-03-10T17:32:40.653Z,7.40
2019-03-10T17:33:50.625Z,7.12
2019-03-10T17:34:54.752Z,6.97
2019-03-10T17:35:59.005Z,6.55
2019-03-10T17:37:05.705Z,6.92
2019-03-10T17:38:09.971Z,6.72
2019-03-10T17:39:15.916Z,5.75
2019-03-10T17:40:30.570Z,5.37
2019-03-10T17:41:40.541Z,5.87
2019-03-10T17:42:50.336Z,5.40
2019-03-10T17:43:56.041Z,5.80
2019-03-10T17:45:04.286Z,5.62
2019-03-10T17:46:10.114Z,5.75
2019-03-10T17:47:26.978Z,6.05
2019-03-10T17:48:37.620Z,5.35
2019-03-10T17:49:46.045Z,5.60
2019-03-10T17:50:54.716Z,5.65
2019-03-10T17:51:58.998Z,5.85
2019-03-10T17:53:04.610Z,6.15
2019-03-10T17:54:10.529Z,6.83
2019-03-10T17:55:23.308Z,6.78
2019-03-10T17:56:39.182Z,7.28
2019-03-10T17:57:45.334Z,7.58
2019-03-10T17:58:55.775Z,7.72
2019-03-10T18:01:38.828Z,8.18
2019-03-10T18:03:04.995Z,8.33